Hc Nadja Maria — V2AV4 — position and weather

sailwx.info

Track history (hours):
 
Tides and Currents Weather Stations Pressure Air Temp Water Temp Dewpoint Dewpoint Depression Visibility Wind Speed Wind Dir Waves Ship Positions

Hc Nadja Maria

Last reported at 2015-Jun-28 04:33 UTC. Time now 2015-Jul-04 01:37 UTC.
Position N 45°33' W 004°13'.

Length 130 m; draft 6.2 m.

Type: Cargo ship. MMSI: 304204000.

Date/timePositionNaut miles runAvg speedWind from/ knotsBaromVisibWave heightAir tempDewpointWater temp
2015-Jun-28 04:33N 45°33' W 004°13'4412.9
2015-Jun-28 01:09N 46°14' W 004°36'2212.7
2015-Jun-27 23:25N 46°35' W 004°47'1312.7
2015-Jun-27 22:25N 46°47' W 004°52'2512.6
2015-Jun-27 20:28N 47°10' W 005°04'3012.6
2015-Jun-27 18:07N 47°38' W 005°21'812.9
2015-Jun-27 17:29N 47°45' W 005°26'1313.4
2015-Jun-27 16:31N 47°57' W 005°32'1913.4
2015-Jun-27 15:04N 48°15' W 005°42'14311.0
2015-Jun-27 02:05N 49°54' W 003°05'11413.0
2015-Jun-26 17:21N 50°29' W 000°16'911.9
2015-Jun-26 16:33N 50°31' W 000°02'1211.5
2015-Jun-26 15:33N 50°35' E 000°16'1111.6
2015-Jun-26 14:33N 50°38' E 000°33'1312.5
2015-Jun-26 13:33N 50°45' E 000°50'1313.2
2015-Jun-26 12:33N 50°53' E 001°06'1313.4
2015-Jun-26 11:33N 51°02' E 001°23'1312.9
2015-Jun-26 10:33N 51°10' E 001°39'1212.2
2015-Jun-26 09:33N 51°19' E 001°52'1010.4
2015-Jun-26 08:33N 51°25' E 002°06'1111.1
2015-Jun-26 07:33N 51°22' E 002°23'1111.3
2015-Jun-26 06:33N 51°23' E 002°41'1111.5
2015-Jun-26 05:33N 51°24' E 002°60'1211.7
2015-Jun-26 04:33N 51°24' E 003°18'1212.0
2015-Jun-26 03:33N 51°26' E 003°37'6 6.3
2015-Jun-26 02:32N 51°23' E 003°47'0 0.1
2015-Jun-26 01:32N 51°23' E 003°46'0 0.0
2015-Jun-26 00:32N 51°23' E 003°46'0 0.0
2015-Jun-25 23:33N 51°23' E 003°46'0 0.0
2015-Jun-25 22:32N 51°23' E 003°46'0 0.0
2015-Jun-25 21:33N 51°23' E 003°46'0 0.2
2015-Jun-25 20:33N 51°23' E 003°47'0 0.1
2015-Jun-25 19:33N 51°23' E 003°47'6 6.0
2015-Jun-25 18:33N 51°26' E 003°38'1212.2
2015-Jun-25 17:33N 51°35' E 003°24'1312.4
2015-Jun-25 16:31N 51°46' E 003°14'9 9.8
2015-Jun-25 15:33N 51°55' E 003°19'1413.7
2015-Jun-25 14:33N 52°09' E 003°24'1414.1
2015-Jun-25 13:33N 52°21' E 003°35'1313.5
2015-Jun-25 12:33N 52°32' E 003°47'1312.8
2015-Jun-25 11:33N 52°44' E 003°55'1212.1
2015-Jun-25 10:33N 52°56' E 003°60'3511.4
2015-Jun-25 07:30N 53°24' E 004°34'1212.4
2015-Jun-25 06:33N 53°31' E 004°50'1313.1
2015-Jun-25 05:33N 53°36' E 005°10'1312.8
2015-Jun-25 04:33N 53°39' E 005°31'1212.3
2015-Jun-25 03:33N 53°43' E 005°51'1211.6
2015-Jun-25 02:33N 53°47' E 006°09'1111.3
2015-Jun-25 01:33N 53°50' E 006°28'1111.1
2015-Jun-25 00:33N 53°52' E 006°46'1111.3
2015-Jun-24 23:33N 53°55' E 007°05'1212.1
2015-Jun-24 22:33N 53°58' E 007°25'1110.8
2015-Jun-24 21:33N 53°56' E 007°43'1211.6
2015-Jun-24 20:33N 53°51' E 008°01'1414.5
2015-Jun-24 19:33N 53°42' E 008°20'1313.3
2015-Jun-24 18:33N 53°32' E 008°34'1111.0
2015-Jun-24 17:33N 53°21' E 008°30'10 9.6
2015-Jun-24 16:31N 53°11' E 008°33'8 8.5
2015-Jun-24 15:32N 53°06' E 008°44'0 0.0
2015-Jun-24 14:32N 53°06' E 008°44'0 0.0
2015-Jun-24 13:32N 53°06' E 008°44'0 0.0
2015-Jun-24 12:32N 53°06' E 008°44'0 0.0
2015-Jun-24 11:32N 53°06' E 008°44'0 0.0
2015-Jun-24 10:32N 53°06' E 008°44'0 0.0
2015-Jun-24 09:32N 53°06' E 008°44'0 0.0
2015-Jun-24 08:32N 53°06' E 008°44'0 0.0
2015-Jun-24 07:32N 53°06' E 008°44'0 0.0
2015-Jun-24 06:32N 53°06' E 008°44'0 0.0
2015-Jun-24 05:32N 53°06' E 008°44'0 0.0
2015-Jun-24 04:32N 53°06' E 008°44'0 0.0
2015-Jun-24 03:32N 53°06' E 008°44'0 0.0
2015-Jun-24 02:32N 53°06' E 008°44'0 0.5
2015-Jun-24 01:33N 53°06' E 008°44'8 8.0
2015-Jun-24 00:33N 53°11' E 008°33'9 9.2
2015-Jun-23 23:33N 53°20' E 008°30'1010.2
2015-Jun-23 22:33N 53°30' E 008°31'7 7.0
2015-Jun-23 21:33N 53°37' E 008°29'1110.6
2015-Jun-23 20:33N 53°44' E 008°15'1110.5
2015-Jun-23 19:33N 53°51' E 008°02'511.7
2015-Jun-23 19:05N 53°52' E 007°53'27511.7
2015-Jun-22 19:33N 51°07' E 001°50'9 9.2
2015-Jun-22 18:33N 50°58' E 001°47'3 2.5
2015-Jun-22 17:27N 50°58' E 001°52'0 0.0
2015-Jun-22 16:27N 50°58' E 001°52'0 0.0
2015-Jun-22 14:33N 50°58' E 001°52'0 0.0
2015-Jun-22 13:33N 50°58' E 001°52'0 0.0
2015-Jun-22 12:18N 50°58' E 001°52'0 0.0
2015-Jun-22 11:33N 50°58' E 001°52'0 0.0
2015-Jun-22 10:24N 50°58' E 001°52'0 0.0
2015-Jun-22 07:27N 50°58' E 001°52'0 0.0
2015-Jun-22 05:30N 50°58' E 001°52'0 0.0
2015-Jun-22 02:24N 50°58' E 001°52'0 0.0
2015-Jun-22 01:30N 50°58' E 001°52'0 0.0
2015-Jun-22 00:33N 50°58' E 001°52'0 0.0
2015-Jun-21 23:33N 50°58' E 001°52'0 0.0
2015-Jun-21 22:33N 50°58' E 001°52'0 0.0
2015-Jun-21 21:33N 50°58' E 001°52'0 0.0
2015-Jun-21 20:30N 50°58' E 001°52'0 0.0
2015-Jun-21 17:33N 50°58' E 001°52'0 0.0
2015-Jun-21 16:27N 50°58' E 001°52'0 0.0
2015-Jun-21 15:30N 50°58' E 001°52'0 0.0
2015-Jun-21 14:27N 50°58' E 001°52'0 0.0
2015-Jun-21 13:33N 50°58' E 001°52'0 0.0
2015-Jun-21 12:33N 50°58' E 001°52'0 0.0
2015-Jun-21 11:24N 50°58' E 001°52'0 0.0
2015-Jun-21 10:30N 50°58' E 001°52'0 0.0
2015-Jun-21 09:30N 50°58' E 001°52'0 0.0
2015-Jun-21 08:30N 50°58' E 001°52'0 0.0
2015-Jun-21 07:33N 50°58' E 001°52'5 4.5
2015-Jun-21 06:32N 50°59' E 001°45'2 1.6
2015-Jun-21 05:30N 51°00' E 001°47'0 0.0
2015-Jun-21 04:32N 51°00' E 001°47'0 0.0
2015-Jun-21 03:32N 51°00' E 001°47'0 0.0
2015-Jun-21 02:32N 51°00' E 001°47'0 0.0
2015-Jun-21 01:32N 51°00' E 001°47'0 0.0
2015-Jun-21 00:29N 51°00' E 001°47'0 0.1
2015-Jun-20 23:32N 51°00' E 001°46'0 0.1
2015-Jun-20 21:23N 51°00' E 001°46'0 0.1
2015-Jun-20 19:08N 51°00' E 001°47'0 0.1
2015-Jun-20 18:32N 51°00' E 001°47'0 0.0
2015-Jun-20 17:32N 51°00' E 001°47'0 0.0
2015-Jun-20 16:23N 51°00' E 001°47'0 0.0
2015-Jun-20 15:32N 51°00' E 001°47'0 0.0
2015-Jun-20 14:32N 51°00' E 001°47'1 0.9
2015-Jun-20 13:34N 51°01' E 001°45'1312.9
2015-Jun-20 12:33N 50°52' E 001°29'28012.1
2015-Jun-19 13:17N 48°56' W 005°07'45 8.6
2015-Jun-19 08:05N 48°13' W 005°27'711.9
2015-Jun-19 07:28N 48°07' W 005°21'1111.9
2015-Jun-19 06:32N 47°57' W 005°13'1211.8
2015-Jun-19 05:33N 47°47' W 005°04'1211.9
2015-Jun-19 04:32N 47°36' W 004°56'1212.2
2015-Jun-19 03:33N 47°26' W 004°46'1212.2
2015-Jun-19 02:33N 47°16' W 004°38'1212.3
2015-Jun-19 01:33N 47°04' W 004°31'1212.4
2015-Jun-19 00:33N 46°54' W 004°20'1212.4
2015-Jun-18 23:33N 46°43' W 004°11'1312.4
2015-Jun-18 22:30N 46°32' W 004°02'9711.8
2015-Jun-18 14:17N 45°07' W 002°53'4411.8
2015-Jun-18 10:33N 44°29' W 002°23'1512.0
2015-Jun-18 09:16N 44°15' W 002°12'3912.2
2015-Jun-18 06:05N 43°41' W 001°48'711.9
2015-Jun-18 05:30N 43°36' W 001°41'1010.0
2015-Jun-18 04:33N 43°31' W 001°30'  
Track history (hours):
 
Tides and Currents Weather Stations Pressure Air Temp Water Temp Dewpoint Dewpoint Depression Visibility Wind Speed Wind Dir Waves Ship Positions

Hc Nadja Maria

Last reported at 2015-Jun-28 04:33 UTC. Time now 2015-Jul-04 01:37 UTC.
Position N 45°33' W 004°13'.

Length 130 m; draft 6.2 m.

Type: Cargo ship. MMSI: 304204000.

Date/timePositionNaut miles runAvg speedWind from/ knotsBaromVisibWave heightAir tempDewpointWater temp
2015-Jun-28 04:33N 45°33' W 004°13'4412.9
2015-Jun-28 01:09N 46°14' W 004°36'2212.7
2015-Jun-27 23:25N 46°35' W 004°47'1312.7
2015-Jun-27 22:25N 46°47' W 004°52'2512.6
2015-Jun-27 20:28N 47°10' W 005°04'3012.6
2015-Jun-27 18:07N 47°38' W 005°21'812.9
2015-Jun-27 17:29N 47°45' W 005°26'1313.4
2015-Jun-27 16:31N 47°57' W 005°32'1913.4
2015-Jun-27 15:04N 48°15' W 005°42'14311.0
2015-Jun-27 02:05N 49°54' W 003°05'11413.0
2015-Jun-26 17:21N 50°29' W 000°16'911.9
2015-Jun-26 16:33N 50°31' W 000°02'1211.5
2015-Jun-26 15:33N 50°35' E 000°16'1111.6
2015-Jun-26 14:33N 50°38' E 000°33'1312.5
2015-Jun-26 13:33N 50°45' E 000°50'1313.2
2015-Jun-26 12:33N 50°53' E 001°06'1313.4
2015-Jun-26 11:33N 51°02' E 001°23'1312.9
2015-Jun-26 10:33N 51°10' E 001°39'1212.2
2015-Jun-26 09:33N 51°19' E 001°52'1010.4
2015-Jun-26 08:33N 51°25' E 002°06'1111.1
2015-Jun-26 07:33N 51°22' E 002°23'1111.3
2015-Jun-26 06:33N 51°23' E 002°41'1111.5
2015-Jun-26 05:33N 51°24' E 002°60'1211.7
2015-Jun-26 04:33N 51°24' E 003°18'1212.0
2015-Jun-26 03:33N 51°26' E 003°37'6 6.3
2015-Jun-26 02:32N 51°23' E 003°47'0 0.1
2015-Jun-26 01:32N 51°23' E 003°46'0 0.0
2015-Jun-26 00:32N 51°23' E 003°46'0 0.0
2015-Jun-25 23:33N 51°23' E 003°46'0 0.0
2015-Jun-25 22:32N 51°23' E 003°46'0 0.0
2015-Jun-25 21:33N 51°23' E 003°46'0 0.2
2015-Jun-25 20:33N 51°23' E 003°47'0 0.1
2015-Jun-25 19:33N 51°23' E 003°47'6 6.0
2015-Jun-25 18:33N 51°26' E 003°38'1212.2
2015-Jun-25 17:33N 51°35' E 003°24'1312.4
2015-Jun-25 16:31N 51°46' E 003°14'9 9.8
2015-Jun-25 15:33N 51°55' E 003°19'1413.7
2015-Jun-25 14:33N 52°09' E 003°24'1414.1
2015-Jun-25 13:33N 52°21' E 003°35'1313.5
2015-Jun-25 12:33N 52°32' E 003°47'1312.8
2015-Jun-25 11:33N 52°44' E 003°55'1212.1
2015-Jun-25 10:33N 52°56' E 003°60'3511.4
2015-Jun-25 07:30N 53°24' E 004°34'1212.4
2015-Jun-25 06:33N 53°31' E 004°50'1313.1
2015-Jun-25 05:33N 53°36' E 005°10'1312.8
2015-Jun-25 04:33N 53°39' E 005°31'1212.3
2015-Jun-25 03:33N 53°43' E 005°51'1211.6
2015-Jun-25 02:33N 53°47' E 006°09'1111.3
2015-Jun-25 01:33N 53°50' E 006°28'1111.1
2015-Jun-25 00:33N 53°52' E 006°46'1111.3
2015-Jun-24 23:33N 53°55' E 007°05'1212.1
2015-Jun-24 22:33N 53°58' E 007°25'1110.8
2015-Jun-24 21:33N 53°56' E 007°43'1211.6
2015-Jun-24 20:33N 53°51' E 008°01'1414.5
2015-Jun-24 19:33N 53°42' E 008°20'1313.3
2015-Jun-24 18:33N 53°32' E 008°34'1111.0
2015-Jun-24 17:33N 53°21' E 008°30'10 9.6
2015-Jun-24 16:31N 53°11' E 008°33'8 8.5
2015-Jun-24 15:32N 53°06' E 008°44'0 0.0
2015-Jun-24 14:32N 53°06' E 008°44'0 0.0
2015-Jun-24 13:32N 53°06' E 008°44'0 0.0
2015-Jun-24 12:32N 53°06' E 008°44'0 0.0
2015-Jun-24 11:32N 53°06' E 008°44'0 0.0
2015-Jun-24 10:32N 53°06' E 008°44'0 0.0
2015-Jun-24 09:32N 53°06' E 008°44'0 0.0
2015-Jun-24 08:32N 53°06' E 008°44'0 0.0
2015-Jun-24 07:32N 53°06' E 008°44'0 0.0
2015-Jun-24 06:32N 53°06' E 008°44'0 0.0
2015-Jun-24 05:32N 53°06' E 008°44'0 0.0
2015-Jun-24 04:32N 53°06' E 008°44'0 0.0
2015-Jun-24 03:32N 53°06' E 008°44'0 0.0
2015-Jun-24 02:32N 53°06' E 008°44'0 0.5
2015-Jun-24 01:33N 53°06' E 008°44'8 8.0
2015-Jun-24 00:33N 53°11' E 008°33'9 9.2
2015-Jun-23 23:33N 53°20' E 008°30'1010.2
2015-Jun-23 22:33N 53°30' E 008°31'7 7.0
2015-Jun-23 21:33N 53°37' E 008°29'1110.6
2015-Jun-23 20:33N 53°44' E 008°15'1110.5
2015-Jun-23 19:33N 53°51' E 008°02'511.7
2015-Jun-23 19:05N 53°52' E 007°53'27511.7
2015-Jun-22 19:33N 51°07' E 001°50'9 9.2
2015-Jun-22 18:33N 50°58' E 001°47'3 2.5
2015-Jun-22 17:27N 50°58' E 001°52'0 0.0
2015-Jun-22 16:27N 50°58' E 001°52'0 0.0
2015-Jun-22 14:33N 50°58' E 001°52'0 0.0
2015-Jun-22 13:33N 50°58' E 001°52'0 0.0
2015-Jun-22 12:18N 50°58' E 001°52'0 0.0
2015-Jun-22 11:33N 50°58' E 001°52'0 0.0
2015-Jun-22 10:24N 50°58' E 001°52'0 0.0
2015-Jun-22 07:27N 50°58' E 001°52'0 0.0
2015-Jun-22 05:30N 50°58' E 001°52'0 0.0
2015-Jun-22 02:24N 50°58' E 001°52'0 0.0
2015-Jun-22 01:30N 50°58' E 001°52'0 0.0
2015-Jun-22 00:33N 50°58' E 001°52'0 0.0
2015-Jun-21 23:33N 50°58' E 001°52'0 0.0
2015-Jun-21 22:33N 50°58' E 001°52'0 0.0
2015-Jun-21 21:33N 50°58' E 001°52'0 0.0
2015-Jun-21 20:30N 50°58' E 001°52'0 0.0
2015-Jun-21 17:33N 50°58' E 001°52'0 0.0
2015-Jun-21 16:27N 50°58' E 001°52'0 0.0
2015-Jun-21 15:30N 50°58' E 001°52'0 0.0
2015-Jun-21 14:27N 50°58' E 001°52'0 0.0
2015-Jun-21 13:33N 50°58' E 001°52'0 0.0
2015-Jun-21 12:33N 50°58' E 001°52'0 0.0
2015-Jun-21 11:24N 50°58' E 001°52'0 0.0
2015-Jun-21 10:30N 50°58' E 001°52'0 0.0
2015-Jun-21 09:30N 50°58' E 001°52'0 0.0
2015-Jun-21 08:30N 50°58' E 001°52'0 0.0
2015-Jun-21 07:33N 50°58' E 001°52'5 4.5
2015-Jun-21 06:32N 50°59' E 001°45'2 1.6
2015-Jun-21 05:30N 51°00' E 001°47'0 0.0
2015-Jun-21 04:32N 51°00' E 001°47'0 0.0
2015-Jun-21 03:32N 51°00' E 001°47'0 0.0
2015-Jun-21 02:32N 51°00' E 001°47'0 0.0
2015-Jun-21 01:32N 51°00' E 001°47'0 0.0
2015-Jun-21 00:29N 51°00' E 001°47'0 0.1
2015-Jun-20 23:32N 51°00' E 001°46'0 0.1
2015-Jun-20 21:23N 51°00' E 001°46'0 0.1
2015-Jun-20 19:08N 51°00' E 001°47'0 0.1
2015-Jun-20 18:32N 51°00' E 001°47'0 0.0
2015-Jun-20 17:32N 51°00' E 001°47'0 0.0
2015-Jun-20 16:23N 51°00' E 001°47'0 0.0
2015-Jun-20 15:32N 51°00' E 001°47'0 0.0
2015-Jun-20 14:32N 51°00' E 001°47'1 0.9
2015-Jun-20 13:34N 51°01' E 001°45'1312.9
2015-Jun-20 12:33N 50°52' E 001°29'28012.1
2015-Jun-19 13:17N 48°56' W 005°07'45 8.6
2015-Jun-19 08:05N 48°13' W 005°27'711.9
2015-Jun-19 07:28N 48°07' W 005°21'1111.9
2015-Jun-19 06:32N 47°57' W 005°13'1211.8
2015-Jun-19 05:33N 47°47' W 005°04'1211.9
2015-Jun-19 04:32N 47°36' W 004°56'1212.2
2015-Jun-19 03:33N 47°26' W 004°46'1212.2
2015-Jun-19 02:33N 47°16' W 004°38'1212.3
2015-Jun-19 01:33N 47°04' W 004°31'1212.4
2015-Jun-19 00:33N 46°54' W 004°20'1212.4
2015-Jun-18 23:33N 46°43' W 004°11'1312.4
2015-Jun-18 22:30N 46°32' W 004°02'9711.8
2015-Jun-18 14:17N 45°07' W 002°53'4411.8
2015-Jun-18 10:33N 44°29' W 002°23'1512.0
2015-Jun-18 09:16N 44°15' W 002°12'3912.2
2015-Jun-18 06:05N 43°41' W 001°48'711.9
2015-Jun-18 05:30N 43°36' W 001°41'1010.0
2015-Jun-18 04:33N 43°31' W 001°30'  

Dump ship's entire track history